Time;durP1;ratioP1;P1;durP2;ratioP2;P2;SDS_P1;SDS_P2;PMS_P1;PMS_P2;Temp;Humidity;BMP_temperature;BMP_pressure;BME280_temperature;BME280_humidity;BME280_pressure;Samples;Min_cycle;Max_cycle;Signal;HPM_P1;HPM_P2
2022/08/31 00:06:04;;;;;;;4.38;1.27;;;16.70;97.70;;;;;;6257918;22;20015;-78
2022/08/31 00:08:30;;;;;;;2.28;1.20;;;16.70;97.70;;;;;;6229175;22;20015;-78
2022/08/31 00:10:57;;;;;;;3.25;1.05;;;16.70;97.80;;;;;;6252566;22;20368;-78
2022/08/31 00:13:25;;;;;;;4.63;1.20;;;16.70;97.80;;;;;;6279183;22;20113;-78
2022/08/31 00:15:52;;;;;;;2.00;1.08;;;16.70;97.80;;;;;;6253894;22;20086;-78
2022/08/31 00:18:19;;;;;;;2.63;1.05;;;16.70;97.80;;;;;;6279067;22;20015;-78
2022/08/31 00:20:46;;;;;;;3.55;1.23;;;16.70;97.90;;;;;;6229176;22;20014;-79
2022/08/31 00:23:15;;;;;;;2.50;0.80;;;16.60;97.90;;;;;;6254074;22;20349;-78
2022/08/31 00:25:44;;;;;;;2.97;1.10;;;16.60;97.90;;;;;;6280147;22;20012;-78
2022/08/31 00:28:11;;;;;;;4.57;1.10;;;16.60;98.00;;;;;;6253951;22;20015;-78
2022/08/31 00:30:38;;;;;;;2.05;0.98;;;16.60;98.00;;;;;;6255367;22;20520;-78
2022/08/31 00:33:04;;;;;;;1.52;1.08;;;16.50;98.00;;;;;;6254522;22;20043;-78
2022/08/31 00:35:34;;;;;;;2.60;1.20;;;16.50;98.00;;;;;;6254125;22;20475;-78
2022/08/31 00:38:01;;;;;;;2.33;1.17;;;16.40;98.00;;;;;;6253442;22;20011;-78
2022/08/31 00:40:27;;;;;;;1.63;1.13;;;16.40;98.00;;;;;;6279597;22;20019;-78
2022/08/31 00:42:53;;;;;;;3.33;1.20;;;16.40;98.10;;;;;;6254063;22;20345;-78
2022/08/31 00:45:20;;;;;;;1.83;1.10;;;16.40;98.10;;;;;;6254176;22;20018;-78
2022/08/31 00:47:46;;;;;;;4.13;1.23;;;16.30;98.20;;;;;;6253424;22;20016;-78
2022/08/31 00:50:14;;;;;;;2.80;1.30;;;16.30;98.20;;;;;;6279601;22;20082;-78
2022/08/31 00:52:47;;;;;;;2.42;0.90;;;16.20;98.20;;;;;;6278085;22;20049;-78
2022/08/31 00:55:21;;;;;;;1.70;1.00;;;16.20;98.30;;;;;;6254294;22;20007;-78
2022/08/31 00:57:51;;;;;;;2.55;0.90;;;16.10;98.30;;;;;;6254134;22;20066;-78
2022/08/31 01:00:20;;;;;;;1.75;0.88;;;16.10;98.30;;;;;;6279827;22;20018;-78
2022/08/31 01:02:47;;;;;;;3.65;1.02;;;16.10;98.30;;;;;;6255288;22;20506;-78
2022/08/31 01:05:14;;;;;;;1.55;1.00;;;16.10;98.30;;;;;;6256252;22;20014;-78
2022/08/31 01:07:41;;;;;;;3.15;0.80;;;16.10;98.20;;;;;;6254579;22;20022;-78
2022/08/31 01:10:08;;;;;;;1.73;0.98;;;16.10;98.20;;;;;;6255820;22;20014;-78
2022/08/31 01:12:34;;;;;;;3.00;1.02;;;16.10;98.00;;;;;;6230145;22;20091;-78
2022/08/31 01:15:03;;;;;;;1.38;0.70;;;16.10;97.90;;;;;;6256290;22;20042;-78
2022/08/31 01:17:34;;;;;;;1.55;0.90;;;16.10;97.80;;;;;;6281147;22;20011;-78
2022/08/31 01:20:42;;;;;;;2.35;0.80;;;16.10;97.60;;;;;;6255110;22;20022;-78
2022/08/31 01:23:13;;;;;;;3.28;1.10;;;16.10;97.20;;;;;;6281000;22;20015;-78
2022/08/31 01:25:42;;;;;;;0.88;0.70;;;16.10;97.10;;;;;;6281557;22;20015;-78
2022/08/31 01:28:09;;;;;;;3.60;0.85;;;16.00;96.80;;;;;;6255258;22;20090;-78
2022/08/31 01:30:35;;;;;;;1.48;0.82;;;16.10;96.80;;;;;;6280587;22;20011;-78
2022/08/31 01:33:01;;;;;;;1.02;0.77;;;16.00;96.50;;;;;;6230002;22;20011;-79
2022/08/31 01:35:28;;;;;;;2.47;0.88;;;16.00;96.30;;;;;;6255621;22;20460;-79
2022/08/31 01:37:55;;;;;;;2.22;0.90;;;16.00;96.20;;;;;;6254933;22;20057;-78
2022/08/31 01:40:25;;;;;;;1.30;0.80;;;16.00;96.10;;;;;;6229849;22;20481;-78
2022/08/31 01:42:50;;;;;;;1.02;0.70;;;16.00;96.10;;;;;;6255284;22;20090;-78
2022/08/31 01:45:16;;;;;;;2.03;0.90;;;16.00;96.00;;;;;;6205415;22;20043;-78
2022/08/31 01:47:42;;;;;;;2.65;0.80;;;16.00;96.20;;;;;;6255282;22;20056;-78
2022/08/31 01:50:07;;;;;;;0.80;0.60;;;16.00;95.70;;;;;;6255985;22;20018;-79
2022/08/31 01:52:35;;;;;;;1.33;0.80;;;15.90;95.40;;;;;;6280419;22;20462;-78
2022/08/31 01:55:02;;;;;;;1.83;1.00;;;15.90;95.40;;;;;;6255147;22;20011;-78
2022/08/31 01:57:28;;;;;;;3.10;0.90;;;15.90;95.20;;;;;;6229183;22;20007;-78
2022/08/31 01:59:53;;;;;;;1.35;0.88;;;15.80;95.20;;;;;;6230689;22;20067;-78
2022/08/31 02:02:19;;;;;;;2.25;0.80;;;15.80;95.20;;;;;;6253805;22;20015;-78
2022/08/31 02:04:46;;;;;;;1.42;0.68;;;15.70;95.00;;;;;;6255413;22;20045;-78
2022/08/31 02:07:12;;;;;;;2.90;0.75;;;15.70;95.00;;;;;;6255456;22;20150;-78
2022/08/31 02:09:37;;;;;;;2.28;0.73;;;15.70;94.80;;;;;;6230236;22;20064;-79
2022/08/31 02:12:03;;;;;;;1.50;0.70;;;15.60;94.90;;;;;;6229821;22;20094;-78
2022/08/31 02:14:39;;;;;;;0.80;0.65;;;15.50;94.70;;;;;;6280474;22;20007;-78
2022/08/31 02:17:05;;;;;;;0.90;0.50;;;15.60;94.80;;;;;;6232733;22;20014;-78
2022/08/31 02:19:30;;;;;;;0.85;0.60;;;15.50;94.70;;;;;;6229857;22;20054;-78
2022/08/31 02:21:56;;;;;;;1.15;0.60;;;15.50;94.70;;;;;;6254597;22;20029;-78
2022/08/31 02:24:22;;;;;;;0.90;0.68;;;15.50;94.60;;;;;;6202847;22;20011;-79
2022/08/31 02:26:47;;;;;;;1.13;0.65;;;15.40;94.70;;;;;;6203636;22;20137;-78
2022/08/31 02:29:13;;;;;;;0.85;0.60;;;15.40;94.80;;;;;;6254178;22;20429;-78
2022/08/31 02:31:39;;;;;;;1.20;0.90;;;15.30;94.80;;;;;;6254683;22;20007;-78
2022/08/31 02:34:05;;;;;;;2.20;0.70;;;15.30;94.80;;;;;;6229297;22;20007;-78
2022/08/31 02:36:31;;;;;;;0.70;0.55;;;15.30;94.80;;;;;;6229444;22;20490;-78
2022/08/31 02:38:57;;;;;;;0.80;0.60;;;15.20;94.80;;;;;;6203787;22;20013;-78
2022/08/31 02:41:22;;;;;;;0.90;0.70;;;15.20;94.80;;;;;;6249640;22;20070;-78
2022/08/31 02:43:48;;;;;;;0.98;0.50;;;15.20;94.90;;;;;;6274838;22;20368;-78
2022/08/31 02:46:14;;;;;;;0.95;0.65;;;15.10;94.80;;;;;;6249743;22;20011;-78
2022/08/31 02:48:39;;;;;;;1.17;0.73;;;15.10;94.80;;;;;;6198204;22;20008;-78
2022/08/31 02:51:08;;;;;;;3.55;0.77;;;15.10;94.90;;;;;;6275445;22;20359;-78
2022/08/31 02:53:34;;;;;;;0.68;0.43;;;15.00;94.90;;;;;;6249310;22;20008;-78
2022/08/31 02:56:00;;;;;;;0.75;0.60;;;14.90;95.00;;;;;;6249342;22;20011;-78
2022/08/31 02:58:26;;;;;;;1.10;0.63;;;14.90;95.10;;;;;;6249669;22;20469;-78
2022/08/31 03:00:52;;;;;;;3.00;0.70;;;14.90;95.10;;;;;;6274043;22;20790;-78
2022/08/31 03:03:20;;;;;;;0.90;0.60;;;14.80;95.10;;;;;;6249197;22;20015;-78
2022/08/31 03:05:47;;;;;;;1.00;0.70;;;14.80;95.10;;;;;;6275212;22;20012;-78
2022/08/31 03:08:12;;;;;;;1.48;0.73;;;14.80;95.20;;;;;;6275318;22;20016;-78
2022/08/31 03:10:38;;;;;;;0.88;0.57;;;14.70;95.30;;;;;;6275200;22;20039;-78
2022/08/31 03:13:04;;;;;;;0.93;0.50;;;14.70;95.40;;;;;;6198955;22;20319;-78
2022/08/31 03:15:30;;;;;;;2.03;0.70;;;14.60;95.70;;;;;;6198761;22;20019;-78
2022/08/31 03:17:56;;;;;;;0.75;0.60;;;14.60;95.50;;;;;;6274345;22;20015;-78
2022/08/31 03:20:24;;;;;;;0.88;0.60;;;14.50;95.50;;;;;;6249245;22;20524;-78
2022/08/31 03:22:49;;;;;;;1.00;0.60;;;14.50;95.70;;;;;;6248871;22;20007;-78
2022/08/31 03:25:16;;;;;;;1.83;0.52;;;14.50;95.70;;;;;;6223636;22;20018;-77
2022/08/31 03:27:43;;;;;;;2.13;0.65;;;14.40;95.70;;;;;;6248640;22;20072;-78
2022/08/31 03:30:13;;;;;;;1.20;0.70;;;14.30;95.80;;;;;;6249389;22;20057;-78
2022/08/31 03:32:39;;;;;;;2.15;0.60;;;14.30;96.00;;;;;;6248810;22;20023;-78
2022/08/31 03:35:05;;;;;;;1.45;0.60;;;14.30;96.10;;;;;;6249399;22;20008;-77
2022/08/31 03:37:31;;;;;;;1.58;0.68;;;14.20;96.00;;;;;;6248633;22;20046;-78
2022/08/31 03:39:57;;;;;;;2.25;0.60;;;14.20;96.10;;;;;;6248682;22;20023;-78
2022/08/31 03:42:23;;;;;;;0.80;0.60;;;14.10;96.20;;;;;;6223835;22;20020;-77
2022/08/31 03:44:49;;;;;;;1.05;0.50;;;14.10;96.30;;;;;;6249197;22;20019;-78
2022/08/31 03:47:15;;;;;;;1.17;0.60;;;14.00;96.30;;;;;;6198802;22;20354;-78
2022/08/31 03:49:41;;;;;;;0.73;0.50;;;14.00;96.70;;;;;;6223560;22;20011;-78
2022/08/31 03:52:08;;;;;;;1.27;0.75;;;13.90;96.50;;;;;;6274609;22;20078;-78
2022/08/31 03:54:34;;;;;;;1.63;0.63;;;13.90;96.60;;;;;;6224295;22;20050;-78
2022/08/31 03:57:00;;;;;;;1.25;0.60;;;13.80;96.70;;;;;;6247642;22;20341;-78
2022/08/31 03:59:26;;;;;;;3.38;0.70;;;13.80;96.90;;;;;;6249476;22;20086;-78
2022/08/31 04:01:52;;;;;;;1.60;0.70;;;13.70;96.90;;;;;;6249230;22;20026;-78
2022/08/31 04:04:18;;;;;;;0.90;0.68;;;13.70;97.00;;;;;;6250267;22;20011;-77
2022/08/31 04:06:43;;;;;;;2.55;0.70;;;13.70;97.10;;;;;;6249790;22;20012;-78
2022/08/31 04:09:10;;;;;;;2.45;0.60;;;13.70;97.30;;;;;;6224048;22;20018;-78
2022/08/31 04:11:39;;;;;;;2.03;0.90;;;13.60;97.40;;;;;;6274482;22;20007;-77
2022/08/31 04:14:06;;;;;;;1.20;0.70;;;13.60;97.70;;;;;;6249311;22;20018;-77
2022/08/31 04:16:33;;;;;;;1.15;0.80;;;13.50;97.50;;;;;;6248209;22;20370;-78
2022/08/31 04:18:59;;;;;;;2.47;0.70;;;13.50;97.70;;;;;;6273621;22;20023;-77
2022/08/31 04:21:29;;;;;;;2.15;0.70;;;13.60;97.80;;;;;;6223407;22;20015;-78
2022/08/31 04:23:55;;;;;;;1.92;0.80;;;13.50;98.10;;;;;;6249715;22;20153;-78
2022/08/31 04:26:30;;;;;;;0.77;0.70;;;13.50;98.10;;;;;;6249299;22;20051;-78
2022/08/31 04:28:56;;;;;;;1.45;0.80;;;13.50;98.30;;;;;;6248906;22;20011;-78
2022/08/31 04:31:23;;;;;;;7.85;0.95;;;13.50;98.30;;;;;;6274403;22;20429;-78
2022/08/31 04:33:49;;;;;;;1.23;0.60;;;13.50;98.50;;;;;;6273644;22;20018;-78
2022/08/31 04:36:20;;;;;;;2.85;1.02;;;13.50;98.80;;;;;;6223928;22;20098;-78
2022/08/31 04:38:49;;;;;;;1.88;0.93;;;13.40;98.80;;;;;;6250752;22;20022;-78
2022/08/31 04:41:18;;;;;;;1.25;0.70;;;13.40;98.90;;;;;;6250777;22;20028;-78
2022/08/31 04:43:47;;;;;;;1.08;0.80;;;13.40;99.30;;;;;;6250318;22;20020;-78
2022/08/31 04:46:14;;;;;;;1.90;0.70;;;13.30;99.40;;;;;;6251711;22;20368;-78
2022/08/31 04:48:40;;;;;;;2.05;0.85;;;13.30;99.60;;;;;;6251561;22;20020;-78
2022/08/31 04:51:15;;;;;;;1.33;0.80;;;13.30;99.80;;;;;;6276596;22;20437;-78
2022/08/31 04:53:41;;;;;;;1.90;0.90;;;13.20;99.90;;;;;;6276814;22;20008;-78
2022/08/31 04:56:13;;;;;;;1.30;0.90;;;13.20;99.90;;;;;;6250856;22;20007;-78
2022/08/31 04:58:44;;;;;;;2.45;0.88;;;13.20;99.90;;;;;;6250748;22;20024;-78
2022/08/31 05:01:12;;;;;;;1.52;0.80;;;13.20;99.90;;;;;;6250889;22;20042;-77
2022/08/31 05:03:39;;;;;;;1.60;0.80;;;13.20;99.90;;;;;;6251044;22;20049;-77
2022/08/31 05:06:10;;;;;;;2.65;0.90;;;13.20;99.90;;;;;;6251103;22;20016;-77
2022/08/31 05:08:36;;;;;;;2.58;0.80;;;13.20;99.90;;;;;;6226547;22;20062;-77
2022/08/31 05:11:11;;;;;;;1.10;0.90;;;13.20;99.90;;;;;;6224375;22;20008;-77
2022/08/31 05:13:37;;;;;;;2.43;1.10;;;13.20;99.90;;;;;;6225705;22;20082;-77
2022/08/31 05:16:05;;;;;;;2.63;0.95;;;13.20;99.90;;;;;;6199533;22;20050;-77
2022/08/31 05:18:31;;;;;;;1.77;1.02;;;13.10;99.90;;;;;;6249936;22;20043;-77
2022/08/31 05:20:57;;;;;;;1.30;0.90;;;13.10;99.90;;;;;;6225651;22;20015;-78
2022/08/31 05:23:22;;;;;;;2.28;0.90;;;13.10;99.90;;;;;;6275355;22;20018;-77
2022/08/31 05:25:48;;;;;;;1.52;0.70;;;13.10;99.90;;;;;;6225589;22;20012;-77
2022/08/31 05:28:15;;;;;;;1.67;0.77;;;13.10;99.90;;;;;;6225389;22;20015;-77
2022/08/31 05:30:44;;;;;;;1.77;0.90;;;13.00;99.90;;;;;;6199899;22;20043;-77
2022/08/31 05:33:10;;;;;;;1.30;0.80;;;13.10;99.90;;;;;;6275308;22;20046;-77
2022/08/31 05:35:36;;;;;;;2.72;1.20;;;13.10;99.90;;;;;;6198939;22;20016;-77
2022/08/31 05:38:02;;;;;;;3.17;1.20;;;13.10;99.90;;;;;;6223461;22;20016;-77
2022/08/31 05:40:28;;;;;;;1.60;1.00;;;13.10;99.90;;;;;;6249425;22;20023;-77
2022/08/31 05:42:55;;;;;;;2.88;1.10;;;13.10;99.90;;;;;;6250289;22;20558;-77
2022/08/31 05:45:20;;;;;;;2.17;1.05;;;13.10;99.90;;;;;;6225293;22;20008;-77
2022/08/31 05:47:46;;;;;;;1.83;1.00;;;13.10;99.90;;;;;;6200196;22;20107;-77
2022/08/31 05:50:12;;;;;;;2.88;0.80;;;13.20;99.90;;;;;;6200063;22;20073;-77
2022/08/31 05:52:37;;;;;;;1.50;0.95;;;13.20;99.90;;;;;;6225687;22;20038;-77
2022/08/31 05:55:04;;;;;;;1.50;0.95;;;13.20;99.90;;;;;;6226051;22;20018;-77
2022/08/31 05:57:29;;;;;;;1.45;1.00;;;13.20;99.90;;;;;;6250973;22;20012;-77
2022/08/31 05:59:55;;;;;;;4.00;1.05;;;13.20;99.90;;;;;;6225222;22;20018;-77
2022/08/31 06:02:21;;;;;;;1.73;1.00;;;13.30;99.90;;;;;;6276442;22;20015;-77
2022/08/31 06:04:47;;;;;;;2.80;1.08;;;13.30;99.90;;;;;;6225840;22;20071;-77
2022/08/31 06:07:13;;;;;;;2.47;1.33;;;13.40;99.90;;;;;;6250020;22;20011;-78
2022/08/31 06:09:38;;;;;;;1.83;1.10;;;13.40;99.90;;;;;;6276723;22;20016;-78
2022/08/31 06:12:04;;;;;;;2.88;0.90;;;13.40;99.90;;;;;;6224794;22;20341;-78
2022/08/31 06:14:31;;;;;;;2.20;1.00;;;13.50;99.90;;;;;;6225087;22;20007;-77
2022/08/31 06:16:58;;;;;;;2.47;1.00;;;13.50;99.90;;;;;;6275953;22;20004;-77
2022/08/31 06:19:26;;;;;;;1.92;1.15;;;13.60;99.90;;;;;;6250661;22;20073;-77
2022/08/31 06:21:51;;;;;;;2.63;1.20;;;13.70;99.90;;;;;;6250794;22;20027;-78
2022/08/31 06:24:18;;;;;;;2.75;1.10;;;13.70;99.90;;;;;;6224785;22;20011;-77
2022/08/31 06:26:51;;;;;;;2.22;1.00;;;13.80;99.90;;;;;;6225040;22;20016;-77
2022/08/31 06:29:17;;;;;;;5.90;1.25;;;13.80;99.90;;;;;;6225991;22;20016;-77
2022/08/31 06:31:45;;;;;;;3.90;1.30;;;13.90;99.90;;;;;;6224870;22;20492;-76
2022/08/31 06:34:13;;;;;;;2.38;1.48;;;14.00;99.90;;;;;;6225317;22;20018;-76
2022/08/31 06:36:38;;;;;;;4.55;1.60;;;14.00;99.90;;;;;;6250211;22;20061;-77
2022/08/31 06:39:04;;;;;;;3.20;1.30;;;14.10;99.90;;;;;;6249058;22;20409;-77
2022/08/31 06:41:33;;;;;;;5.55;2.00;;;14.20;99.90;;;;;;6250575;22;20016;-77
2022/08/31 06:44:00;;;;;;;4.75;1.88;;;14.20;99.90;;;;;;6250363;22;20030;-77
2022/08/31 06:46:27;;;;;;;2.10;1.30;;;14.30;99.90;;;;;;6226638;22;20015;-77
2022/08/31 06:48:54;;;;;;;11.15;1.38;;;14.40;99.90;;;;;;6225300;22;20012;-77
2022/08/31 06:51:20;;;;;;;1.90;1.30;;;14.50;99.90;;;;;;6250947;22;20004;-77
2022/08/31 06:53:46;;;;;;;2.30;1.35;;;14.50;99.90;;;;;;6249459;22;20018;-77
2022/08/31 06:56:14;;;;;;;1.98;1.27;;;14.70;99.90;;;;;;6225617;22;20592;-77
2022/08/31 06:58:40;;;;;;;2.72;1.42;;;14.70;99.90;;;;;;6275132;22;20015;-77
2022/08/31 07:01:07;;;;;;;3.80;1.23;;;14.90;99.90;;;;;;6250017;22;20012;-77
2022/08/31 07:03:37;;;;;;;1.73;1.10;;;15.10;99.90;;;;;;6249751;22;20325;-77
2022/08/31 07:06:12;;;;;;;6.25;1.30;;;15.40;99.90;;;;;;6249014;22;20026;-77
2022/08/31 07:08:39;;;;;;;3.60;1.23;;;15.80;99.90;;;;;;6249390;22;20377;-77
2022/08/31 07:11:11;;;;;;;2.35;1.25;;;16.10;99.90;;;;;;6249476;22;20464;-78
2022/08/31 07:13:37;;;;;;;3.35;1.20;;;16.40;99.90;;;;;;6249203;22;20012;-78
2022/08/31 07:16:09;;;;;;;1.75;1.05;;;16.70;99.90;;;;;;6224886;22;20015;-78
2022/08/31 07:18:35;;;;;;;1.63;1.20;;;16.90;99.90;;;;;;6248841;22;20043;-78
2022/08/31 07:21:23;;;;;;;3.15;1.10;;;17.10;99.90;;;;;;6249055;22;20017;-79
2022/08/31 07:23:49;;;;;;;2.42;1.58;;;17.50;99.90;;;;;;6248749;22;20012;-79
2022/08/31 07:26:23;;;;;;;3.97;1.15;;;17.60;99.90;;;;;;6250129;22;20022;-78
2022/08/31 07:28:51;;;;;;;3.42;1.17;;;17.80;99.90;;;;;;6248952;22;20022;-79
2022/08/31 07:31:21;;;;;;;3.33;1.33;;;17.90;99.90;;;;;;6274602;22;20008;-78
2022/08/31 07:33:54;;;;;;;4.03;1.30;;;18.00;99.90;;;;;;6249549;22;20433;-79
2022/08/31 07:36:22;;;;;;;7.43;1.10;;;18.20;99.90;;;;;;6248549;22;20018;-78
2022/08/31 07:44:17;;;;;;;2.80;1.40;;;18.70;99.70;;;;;;6252599;22;20020;-79
2022/08/31 07:46:45;;;;;;;1.65;1.02;;;18.90;99.00;;;;;;6248980;22;20404;-79
2022/08/31 07:49:14;;;;;;;1.73;1.10;;;19.10;98.60;;;;;;6248081;22;20012;-77
2022/08/31 07:51:49;;;;;;;2.20;1.00;;;19.20;98.20;;;;;;6273498;22;20069;-79
2022/08/31 07:54:20;;;;;;;2.55;1.00;;;19.40;97.40;;;;;;6248684;22;20351;-78
2022/08/31 07:56:59;;;;;;;1.90;1.00;;;19.50;97.10;;;;;;6223400;22;20012;-78
2022/08/31 07:59:26;;;;;;;3.13;0.90;;;19.50;96.70;;;;;;6251198;22;20011;-78
2022/08/31 08:01:54;;;;;;;2.22;0.90;;;19.50;96.10;;;;;;6248767;22;20019;-79
2022/08/31 08:04:24;;;;;;;5.60;1.20;;;19.40;95.80;;;;;;6222457;22;20015;-78
2022/08/31 08:06:54;;;;;;;2.30;0.85;;;19.40;95.90;;;;;;6222738;22;20016;-78
2022/08/31 08:09:24;;;;;;;2.67;0.98;;;19.40;95.80;;;;;;6274995;22;20012;-79
2022/08/31 08:12:03;;;;;;;2.60;1.20;;;19.30;95.70;;;;;;6275315;22;20016;-79
2022/08/31 08:14:29;;;;;;;3.30;1.20;;;19.20;95.60;;;;;;6248396;22;20015;-78
2022/08/31 08:16:54;;;;;;;2.80;1.08;;;19.00;95.50;;;;;;6223849;22;20037;-78
2022/08/31 08:19:21;;;;;;;3.30;1.05;;;19.00;95.40;;;;;;6249511;22;20015;-78
2022/08/31 08:21:47;;;;;;;2.65;1.10;;;18.90;95.20;;;;;;6248749;22;20014;-78
2022/08/31 08:24:14;;;;;;;2.65;0.80;;;18.80;95.30;;;;;;6273274;22;20016;-78
2022/08/31 08:26:46;;;;;;;2.10;0.80;;;18.80;95.30;;;;;;6249197;22;20008;-78
2022/08/31 08:29:12;;;;;;;2.75;1.00;;;18.80;95.20;;;;;;6248412;22;20158;-79
2022/08/31 08:31:38;;;;;;;1.58;0.60;;;18.80;95.30;;;;;;6273762;22;20438;-79
2022/08/31 08:34:05;;;;;;;3.25;1.00;;;18.70;95.30;;;;;;6248427;22;20011;-79
2022/08/31 08:36:34;;;;;;;13.10;2.67;;;18.70;95.60;;;;;;6275749;22;20515;-78
2022/08/31 08:39:06;;;;;;;3.80;0.90;;;18.80;95.60;;;;;;6247605;22;20012;-78
2022/08/31 08:41:35;;;;;;;3.83;1.08;;;18.90;95.30;;;;;;6248937;22;20457;-78
2022/08/31 08:44:06;;;;;;;2.33;0.90;;;18.90;95.10;;;;;;6249134;22;20015;-78
2022/08/31 08:46:48;;;;;;;3.03;0.93;;;19.00;94.80;;;;;;6248978;22;20016;-79
2022/08/31 08:49:31;;;;;;;2.80;0.90;;;19.00;95.00;;;;;;6248184;22;20095;-79
2022/08/31 08:52:02;;;;;;;5.65;1.30;;;19.00;94.90;;;;;;6248812;22;20008;-79
2022/08/31 08:54:36;;;;;;;4.15;1.38;;;19.10;95.20;;;;;;6249189;22;20389;-79
2022/08/31 08:57:12;;;;;;;4.30;1.00;;;19.10;95.20;;;;;;6274233;22;20014;-78
2022/08/31 08:59:40;;;;;;;2.65;0.90;;;19.10;95.00;;;;;;6247976;22;20018;-79
2022/08/31 09:02:11;;;;;;;2.30;0.70;;;19.00;95.20;;;;;;6249678;22;20099;-77
2022/08/31 09:04:48;;;;;;;4.30;1.00;;;19.00;94.90;;;;;;6249503;22;20059;-78
2022/08/31 09:07:56;;;;;;;3.90;0.80;;;19.00;94.90;;;;;;6249053;22;20027;-78
2022/08/31 09:10:45;;;;;;;2.95;0.98;;;19.00;95.10;;;;;;6249091;22;20023;-78
2022/08/31 09:13:35;;;;;;;2.97;0.90;;;19.00;95.00;;;;;;6249421;22;20358;-78
2022/08/31 09:16:33;;;;;;;2.30;1.17;;;19.00;95.10;;;;;;6247682;22;20019;-78
2022/08/31 09:19:05;;;;;;;2.30;0.85;;;19.00;95.20;;;;;;6249061;22;20051;-77
2022/08/31 09:21:37;;;;;;;1.58;0.90;;;19.00;95.30;;;;;;6249186;22;20431;-78
2022/08/31 09:24:07;;;;;;;4.18;1.10;;;19.00;95.40;;;;;;6275301;22;20450;-78
2022/08/31 09:26:54;;;;;;;3.72;0.90;;;19.00;95.40;;;;;;6250588;22;20018;-78
2022/08/31 09:29:27;;;;;;;1.92;1.00;;;19.00;95.30;;;;;;6275648;22;20021;-78
2022/08/31 09:32:08;;;;;;;1.95;0.90;;;19.10;95.00;;;;;;6251123;22;20046;-80
2022/08/31 09:34:40;;;;;;;3.80;0.90;;;19.10;94.80;;;;;;6276591;22;20007;-80
2022/08/31 09:37:13;;;;;;;1.27;0.90;;;19.20;94.90;;;;;;6225589;22;20012;-79
2022/08/31 09:39:39;;;;;;;2.03;0.90;;;19.20;94.70;;;;;;6278312;22;20016;-79
2022/08/31 09:42:30;;;;;;;3.00;1.00;;;19.30;94.60;;;;;;6256445;22;20020;-79
2022/08/31 09:45:14;;;;;;;3.47;0.82;;;19.30;94.20;;;;;;6256561;22;20015;-79
2022/08/31 09:47:57;;;;;;;6.63;0.95;;;19.40;93.90;;;;;;6256707;22;20011;-79
2022/08/31 09:50:31;;;;;;;3.08;0.80;;;19.40;93.70;;;;;;6279377;22;20011;-79
2022/08/31 09:56:21;;;;;;;1.38;0.85;;;19.50;93.00;;;;;;6281885;22;20034;-78
2022/08/31 09:58:56;;;;;;;2.30;1.48;;;19.50;92.50;;;;;;6255550;22;20337;-78
2022/08/31 10:01:43;;;;;;;1.80;0.80;;;19.50;92.70;;;;;;6281915;22;20483;-78
2022/08/31 10:04:15;;;;;;;2.05;0.73;;;19.50;92.70;;;;;;6254624;22;20019;-79
2022/08/31 10:07:10;;;;;;;3.60;1.00;;;19.50;92.40;;;;;;6281227;22;20077;-78
2022/08/31 10:09:45;;;;;;;5.05;0.77;;;19.60;92.30;;;;;;6255528;22;20018;-79
2022/08/31 10:12:37;;;;;;;4.05;0.80;;;19.60;92.40;;;;;;6255545;22;20015;-79
2022/08/31 10:15:30;;;;;;;1.38;0.82;;;19.60;92.30;;;;;;6255208;22;20013;-79
2022/08/31 10:18:38;;;;;;;3.95;0.82;;;19.70;92.50;;;;;;6255284;22;20011;-78
2022/08/31 10:21:20;;;;;;;2.10;1.00;;;19.70;92.80;;;;;;6265213;22;20050;-79
2022/08/31 10:23:58;;;;;;;5.65;1.10;;;19.80;92.40;;;;;;6255118;22;20090;-78
2022/08/31 10:26:30;;;;;;;2.65;0.80;;;19.80;92.10;;;;;;6280767;22;20011;-78
2022/08/31 10:28:59;;;;;;;1.70;0.85;;;19.90;91.90;;;;;;6255719;22;20090;-78
2022/08/31 10:31:44;;;;;;;2.63;0.70;;;19.90;91.60;;;;;;6255248;22;20018;-78
2022/08/31 10:37:15;;;;;;;1.65;0.90;;;20.00;91.10;;;;;;6280138;22;20068;-79
2022/08/31 10:39:49;;;;;;;2.13;1.00;;;20.00;90.90;;;;;;6254648;22;20018;-79
2022/08/31 10:42:26;;;;;;;1.98;0.80;;;20.00;90.50;;;;;;6256505;22;20022;-80
2022/08/31 10:45:22;;;;;;;4.55;1.13;;;20.00;90.20;;;;;;6268450;22;20011;-79
2022/08/31 10:47:49;;;;;;;;;;;20.00;90.50;;;;;;6282943;22;20026;-79
2022/08/31 10:50:26;;;;;;;1.90;0.70;;;20.00;90.60;;;;;;6253355;22;19914;-79
2022/08/31 10:53:21;;;;;;;1.58;0.90;;;20.00;90.20;;;;;;6254550;22;20057;-79
2022/08/31 10:56:13;;;;;;;2.33;1.08;;;20.10;90.00;;;;;;6280106;22;20018;-79
2022/08/31 10:58:50;;;;;;;4.88;0.88;;;20.20;89.90;;;;;;6254683;22;20081;-79
2022/08/31 11:01:50;;;;;;;3.28;0.80;;;20.20;89.30;;;;;;6254871;22;20021;-79
2022/08/31 11:04:30;;;;;;;1.52;0.80;;;20.20;88.90;;;;;;6280033;22;20015;-79
2022/08/31 11:07:23;;;;;;;3.08;0.70;;;20.20;88.90;;;;;;6279923;22;20011;-79
2022/08/31 11:10:31;;;;;;;2.25;0.70;;;20.20;88.70;;;;;;6253906;22;20341;-79
2022/08/31 11:13:13;;;;;;;1.13;0.68;;;20.30;88.90;;;;;;6254366;22;20011;-80
2022/08/31 11:15:58;;;;;;;3.63;0.93;;;20.20;88.00;;;;;;6254297;22;20015;-79
2022/08/31 11:18:40;;;;;;;2.25;0.80;;;20.30;87.40;;;;;;6279611;22;20046;-80
2022/08/31 11:21:44;;;;;;;2.17;0.77;;;20.30;87.20;;;;;;6280097;22;20017;-80
2022/08/31 11:24:54;;;;;;;2.45;0.70;;;20.40;85.50;;;;;;6253881;22;20011;-79
2022/08/31 11:27:43;;;;;;;3.72;1.00;;;20.50;86.80;;;;;;6222359;22;20019;-79
2022/08/31 11:30:22;;;;;;;2.35;0.90;;;20.50;87.00;;;;;;6254369;22;20021;-79
2022/08/31 11:32:55;;;;;;;2.47;0.90;;;20.50;86.80;;;;;;6254647;22;20325;-79
2022/08/31 11:35:48;;;;;;;1.42;0.80;;;20.60;86.80;;;;;;6254367;22;20011;-80
2022/08/31 11:38:42;;;;;;;3.30;0.95;;;20.60;84.00;;;;;;6279191;22;20007;-79
2022/08/31 11:41:12;;;;;;;2.75;0.90;;;20.60;84.60;;;;;;6249242;22;20065;-79
2022/08/31 11:43:44;;;;;;;7.78;1.00;;;20.70;83.50;;;;;;6225606;22;20011;-79
2022/08/31 11:46:24;;;;;;;2.17;0.73;;;20.70;83.80;;;;;;6248563;22;20473;-79
2022/08/31 11:48:50;;;;;;;2.05;0.80;;;20.80;84.30;;;;;;6274394;22;20095;-80
2022/08/31 11:51:35;;;;;;;1.77;0.80;;;20.80;84.50;;;;;;6274704;22;20402;-79
2022/08/31 11:54:04;;;;;;;1.70;0.80;;;20.80;84.40;;;;;;6247657;22;20031;-80
2022/08/31 11:56:39;;;;;;;5.15;1.23;;;20.90;83.70;;;;;;6274872;22;20034;-79
2022/08/31 11:59:33;;;;;;;2.17;0.83;;;20.90;82.70;;;;;;6247324;22;20011;-80
2022/08/31 12:02:19;;;;;;;3.13;1.00;;;20.90;82.70;;;;;;6273354;22;20242;-80
2022/08/31 12:04:46;;;;;;;2.22;0.88;;;20.90;83.10;;;;;;6247494;22;20015;-80
2022/08/31 12:07:26;;;;;;;2.83;0.80;;;21.00;83.60;;;;;;6247009;22;20018;-79
2022/08/31 12:10:14;;;;;;;5.05;0.77;;;21.00;83.70;;;;;;6247633;22;20022;-81
2022/08/31 12:13:29;;;;;;;7.65;1.10;;;21.00;83.90;;;;;;6273649;22;20012;-78
2022/08/31 12:16:20;;;;;;;2.33;0.95;;;21.20;82.40;;;;;;6246953;22;20480;-78
2022/08/31 12:18:48;;;;;;;3.15;0.85;;;21.20;81.80;;;;;;6247005;22;20015;-78
2022/08/31 12:25:19;;;;;;;2.05;0.90;;;21.20;81.20;;;;;;6272716;22;20376;-78
2022/08/31 12:28:15;;;;;;;1.30;0.75;;;21.20;82.20;;;;;;6181446;22;20061;-78
2022/08/31 12:30:50;;;;;;;4.13;1.27;;;21.40;82.70;;;;;;6272561;22;20449;-78
2022/08/31 12:33:22;;;;;;;3.53;1.07;;;21.40;81.60;;;;;;6247784;22;20043;-79
2022/08/31 12:36:09;;;;;;;2.88;0.73;;;21.50;81.30;;;;;;6248322;22;20465;-78
2022/08/31 12:38:35;;;;;;;4.13;1.10;;;21.50;81.20;;;;;;6272872;22;20014;-78
2022/08/31 12:41:02;;;;;;;3.75;1.00;;;21.60;81.40;;;;;;6221740;22;20076;-78
2022/08/31 12:43:38;;;;;;;2.45;0.90;;;21.60;81.10;;;;;;6246618;22;20051;-78
2022/08/31 12:46:22;;;;;;;1.73;0.80;;;21.70;81.00;;;;;;6246957;22;20012;-80
2022/08/31 12:49:09;;;;;;;1.58;0.90;;;21.80;80.30;;;;;;6272739;22;20422;-78
2022/08/31 12:51:39;;;;;;;2.53;0.77;;;21.90;77.90;;;;;;6271700;22;20012;-78
2022/08/31 12:54:22;;;;;;;2.25;0.88;;;21.90;78.40;;;;;;6246893;22;20008;-78
2022/08/31 12:57:11;;;;;;;1.63;0.73;;;22.00;78.00;;;;;;6246511;22;20068;-81
2022/08/31 12:59:48;;;;;;;1.70;0.73;;;22.10;77.90;;;;;;6249640;22;20087;-78
2022/08/31 13:02:14;;;;;;;2.80;0.70;;;22.20;76.80;;;;;;6247862;22;20011;-78
2022/08/31 13:04:44;;;;;;;3.35;0.80;;;22.50;77.10;;;;;;6249631;22;20038;-78
2022/08/31 13:07:32;;;;;;;3.10;0.90;;;22.60;76.00;;;;;;6248578;22;20511;-79
2022/08/31 13:10:08;;;;;;;2.08;0.77;;;23.20;76.30;;;;;;6250021;22;20065;-79
2022/08/31 13:12:35;;;;;;;1.80;0.90;;;23.70;75.40;;;;;;6249742;22;20089;-79
2022/08/31 13:15:00;;;;;;;1.85;0.93;;;24.00;74.20;;;;;;6222153;22;20007;-79
2022/08/31 13:17:32;;;;;;;2.67;1.00;;;24.50;74.10;;;;;;6223212;22;20392;-79
2022/08/31 13:19:59;;;;;;;4.95;1.17;;;25.10;73.30;;;;;;6248494;22;20016;-79
2022/08/31 13:22:41;;;;;;;2.05;1.08;;;25.60;72.00;;;;;;6247995;22;20047;-79
2022/08/31 13:25:34;;;;;;;3.47;0.95;;;26.10;71.00;;;;;;6249889;22;20103;-79
2022/08/31 13:28:06;;;;;;;3.88;1.00;;;26.60;70.70;;;;;;6247653;22;20038;-79
2022/08/31 13:30:37;;;;;;;2.30;1.25;;;27.00;69.40;;;;;;6248501;22;20023;-79
2022/08/31 13:33:20;;;;;;;2.33;1.10;;;27.30;68.60;;;;;;6274513;22;20012;-79